sensor_id;sensor_type;location;lat;lon;timestamp;temperature;humidity
3942;DHT22;1985;48.592;8.850;2022-09-09T00:01:56;16.60;99.90
3942;DHT22;1985;48.592;8.850;2022-09-09T00:04:34;16.40;99.90
3942;DHT22;1985;48.592;8.850;2022-09-09T00:15:00;16.20;99.90
3942;DHT22;1985;48.592;8.850;2022-09-09T00:17:38;16.30;99.90
3942;DHT22;1985;48.592;8.850;2022-09-09T00:20:28;16.40;99.90
3942;DHT22;1985;48.592;8.850;2022-09-09T00:25:40;16.40;99.90
3942;DHT22;1985;48.592;8.850;2022-09-09T00:28:19;16.50;99.90
3942;DHT22;1985;48.592;8.850;2022-09-09T00:30:46;16.60;99.90
3942;DHT22;1985;48.592;8.850;2022-09-09T00:33:15;16.60;99.90
3942;DHT22;1985;48.592;8.850;2022-09-09T00:35:47;16.60;99.90
3942;DHT22;1985;48.592;8.850;2022-09-09T00:38:33;16.60;99.90
3942;DHT22;1985;48.592;8.850;2022-09-09T00:43:33;16.70;99.90
3942;DHT22;1985;48.592;8.850;2022-09-09T00:54:46;16.80;99.90
3942;DHT22;1985;48.592;8.850;2022-09-09T00:57:29;16.80;99.90
3942;DHT22;1985;48.592;8.850;2022-09-09T01:05:45;16.40;99.90
3942;DHT22;1985;48.592;8.850;2022-09-09T01:10:51;16.40;99.90
3942;DHT22;1985;48.592;8.850;2022-09-09T01:13:28;16.30;99.90
3942;DHT22;1985;48.592;8.850;2022-09-09T01:15:58;16.40;99.90
3942;DHT22;1985;48.592;8.850;2022-09-09T01:18:27;16.30;99.90
3942;DHT22;1985;48.592;8.850;2022-09-09T01:21:09;16.30;99.90
3942;DHT22;1985;48.592;8.850;2022-09-09T01:23:50;16.40;99.90
3942;DHT22;1985;48.592;8.850;2022-09-09T01:26:30;16.50;99.90
3942;DHT22;1985;48.592;8.850;2022-09-09T01:28:57;16.60;99.90
3942;DHT22;1985;48.592;8.850;2022-09-09T01:31:37;16.70;99.90
3942;DHT22;1985;48.592;8.850;2022-09-09T01:34:10;16.70;99.90
3942;DHT22;1985;48.592;8.850;2022-09-09T01:39:39;16.70;99.90
3942;DHT22;1985;48.592;8.850;2022-09-09T01:42:09;16.70;99.90
3942;DHT22;1985;48.592;8.850;2022-09-09T01:44:38;16.70;99.90
3942;DHT22;1985;48.592;8.850;2022-09-09T01:47:04;16.60;99.90
3942;DHT22;1985;48.592;8.850;2022-09-09T01:49:30;16.50;99.90
3942;DHT22;1985;48.592;8.850;2022-09-09T01:51:58;16.30;99.90
3942;DHT22;1985;48.592;8.850;2022-09-09T01:54:27;16.20;99.90
3942;DHT22;1985;48.592;8.850;2022-09-09T02:04:43;16.10;99.90
3942;DHT22;1985;48.592;8.850;2022-09-09T02:10:09;16.20;99.90
3942;DHT22;1985;48.592;8.850;2022-09-09T02:12:38;16.30;99.90
3942;DHT22;1985;48.592;8.850;2022-09-09T02:15:15;16.00;99.90
3942;DHT22;1985;48.592;8.850;2022-09-09T02:17:41;15.60;99.90
3942;DHT22;1985;48.592;8.850;2022-09-09T02:20:12;15.60;99.90
3942;DHT22;1985;48.592;8.850;2022-09-09T02:22:40;15.50;99.90
3942;DHT22;1985;48.592;8.850;2022-09-09T02:25:10;15.60;99.90
3942;DHT22;1985;48.592;8.850;2022-09-09T02:27:37;15.50;99.90
3942;DHT22;1985;48.592;8.850;2022-09-09T02:30:04;15.60;99.90
3942;DHT22;1985;48.592;8.850;2022-09-09T02:32:32;15.60;99.90
3942;DHT22;1985;48.592;8.850;2022-09-09T02:35:06;15.70;99.90
3942;DHT22;1985;48.592;8.850;2022-09-09T02:37:38;15.70;99.90
3942;DHT22;1985;48.592;8.850;2022-09-09T02:40:06;15.80;99.90
3942;DHT22;1985;48.592;8.850;2022-09-09T02:42:37;15.80;99.90
3942;DHT22;1985;48.592;8.850;2022-09-09T02:45:03;15.90;99.90
3942;DHT22;1985;48.592;8.850;2022-09-09T02:47:30;15.90;99.90
3942;DHT22;1985;48.592;8.850;2022-09-09T02:55:45;15.90;99.90
3942;DHT22;1985;48.592;8.850;2022-09-09T02:58:15;15.90;99.90
3942;DHT22;1985;48.592;8.850;2022-09-09T03:00:46;15.90;99.90
3942;DHT22;1985;48.592;8.850;2022-09-09T03:03:13;15.90;99.90
3942;DHT22;1985;48.592;8.850;2022-09-09T03:05:38;15.90;99.90
3942;DHT22;1985;48.592;8.850;2022-09-09T03:08:05;16.00;99.90
3942;DHT22;1985;48.592;8.850;2022-09-09T03:10:33;16.00;99.90
3942;DHT22;1985;48.592;8.850;2022-09-09T03:13:00;16.10;99.90
3942;DHT22;1985;48.592;8.850;2022-09-09T03:15:25;16.10;99.90
3942;DHT22;1985;48.592;8.850;2022-09-09T03:17:57;16.00;99.90
3942;DHT22;1985;48.592;8.850;2022-09-09T03:20:28;15.90;99.90
3942;DHT22;1985;48.592;8.850;2022-09-09T03:22:55;15.50;99.90
3942;DHT22;1985;48.592;8.850;2022-09-09T03:25:21;15.30;99.90
3942;DHT22;1985;48.592;8.850;2022-09-09T03:27:49;15.10;99.90
3942;DHT22;1985;48.592;8.850;2022-09-09T03:30:15;15.10;99.90
3942;DHT22;1985;48.592;8.850;2022-09-09T03:32:41;15.20;99.90
3942;DHT22;1985;48.592;8.850;2022-09-09T03:35:07;14.90;99.90
3942;DHT22;1985;48.592;8.850;2022-09-09T03:37:33;14.80;99.90
3942;DHT22;1985;48.592;8.850;2022-09-09T03:39:59;14.90;99.90
3942;DHT22;1985;48.592;8.850;2022-09-09T03:42:25;15.00;99.90
3942;DHT22;1985;48.592;8.850;2022-09-09T03:44:51;15.00;99.90
3942;DHT22;1985;48.592;8.850;2022-09-09T03:47:17;15.00;99.90
3942;DHT22;1985;48.592;8.850;2022-09-09T03:49:43;15.20;99.90
3942;DHT22;1985;48.592;8.850;2022-09-09T03:52:09;15.30;99.90
3942;DHT22;1985;48.592;8.850;2022-09-09T03:54:35;15.30;99.90
3942;DHT22;1985;48.592;8.850;2022-09-09T03:57:01;15.50;99.90
3942;DHT22;1985;48.592;8.850;2022-09-09T03:59:27;15.60;99.90
3942;DHT22;1985;48.592;8.850;2022-09-09T04:01:53;15.60;99.90
3942;DHT22;1985;48.592;8.850;2022-09-09T04:04:19;15.60;99.90
3942;DHT22;1985;48.592;8.850;2022-09-09T04:06:45;15.50;99.90
3942;DHT22;1985;48.592;8.850;2022-09-09T04:09:12;15.50;99.90
3942;DHT22;1985;48.592;8.850;2022-09-09T04:11:37;15.60;99.90
3942;DHT22;1985;48.592;8.850;2022-09-09T04:14:03;15.60;99.90
3942;DHT22;1985;48.592;8.850;2022-09-09T04:16:31;15.60;99.90
3942;DHT22;1985;48.592;8.850;2022-09-09T04:18:58;15.60;99.90
3942;DHT22;1985;48.592;8.850;2022-09-09T04:21:25;15.70;99.90
3942;DHT22;1985;48.592;8.850;2022-09-09T04:23:50;15.60;99.90
3942;DHT22;1985;48.592;8.850;2022-09-09T04:26:17;15.60;99.90
3942;DHT22;1985;48.592;8.850;2022-09-09T04:28:42;15.60;99.90
3942;DHT22;1985;48.592;8.850;2022-09-09T04:31:12;15.60;99.90
3942;DHT22;1985;48.592;8.850;2022-09-09T04:33:40;15.50;99.90
3942;DHT22;1985;48.592;8.850;2022-09-09T04:36:05;15.50;99.90
3942;DHT22;1985;48.592;8.850;2022-09-09T04:38:31;15.40;99.90
3942;DHT22;1985;48.592;8.850;2022-09-09T04:40:57;15.30;99.90
3942;DHT22;1985;48.592;8.850;2022-09-09T04:43:23;15.20;99.90
3942;DHT22;1985;48.592;8.850;2022-09-09T04:45:52;15.00;99.90
3942;DHT22;1985;48.592;8.850;2022-09-09T04:48:18;14.80;99.90
3942;DHT22;1985;48.592;8.850;2022-09-09T04:50:44;14.80;99.90
3942;DHT22;1985;48.592;8.850;2022-09-09T04:53:09;14.90;99.90
3942;DHT22;1985;48.592;8.850;2022-09-09T04:55:35;15.00;99.90
3942;DHT22;1985;48.592;8.850;2022-09-09T04:58:08;15.10;99.90
3942;DHT22;1985;48.592;8.850;2022-09-09T05:00:35;15.10;99.90
3942;DHT22;1985;48.592;8.850;2022-09-09T05:03:05;15.10;99.90
3942;DHT22;1985;48.592;8.850;2022-09-09T05:05:32;15.20;99.90
3942;DHT22;1985;48.592;8.850;2022-09-09T05:08:03;15.30;99.90
3942;DHT22;1985;48.592;8.850;2022-09-09T05:10:29;15.40;99.90
3942;DHT22;1985;48.592;8.850;2022-09-09T05:12:55;15.60;99.90
3942;DHT22;1985;48.592;8.850;2022-09-09T05:15:21;15.50;99.90
3942;DHT22;1985;48.592;8.850;2022-09-09T05:17:47;15.50;99.90
3942;DHT22;1985;48.592;8.850;2022-09-09T05:20:13;15.50;99.90
3942;DHT22;1985;48.592;8.850;2022-09-09T05:22:38;15.50;99.90
3942;DHT22;1985;48.592;8.850;2022-09-09T05:25:04;15.50;99.90
3942;DHT22;1985;48.592;8.850;2022-09-09T05:27:30;15.50;99.90
3942;DHT22;1985;48.592;8.850;2022-09-09T05:29:58;15.50;99.90
3942;DHT22;1985;48.592;8.850;2022-09-09T05:32:24;15.50;99.90
3942;DHT22;1985;48.592;8.850;2022-09-09T05:34:49;15.50;99.90
3942;DHT22;1985;48.592;8.850;2022-09-09T05:37:16;15.60;99.90
3942;DHT22;1985;48.592;8.850;2022-09-09T05:39:42;15.60;99.90
3942;DHT22;1985;48.592;8.850;2022-09-09T05:42:07;15.70;99.90
3942;DHT22;1985;48.592;8.850;2022-09-09T05:44:33;15.80;99.90
3942;DHT22;1985;48.592;8.850;2022-09-09T05:46:59;15.90;99.90
3942;DHT22;1985;48.592;8.850;2022-09-09T05:49:24;16.00;99.90
3942;DHT22;1985;48.592;8.850;2022-09-09T05:51:50;16.10;99.90
3942;DHT22;1985;48.592;8.850;2022-09-09T05:54:16;16.20;99.90
3942;DHT22;1985;48.592;8.850;2022-09-09T05:56:42;16.20;99.90
3942;DHT22;1985;48.592;8.850;2022-09-09T05:59:08;16.30;99.90
3942;DHT22;1985;48.592;8.850;2022-09-09T06:01:36;16.40;99.90
3942;DHT22;1985;48.592;8.850;2022-09-09T06:04:05;16.50;99.90
3942;DHT22;1985;48.592;8.850;2022-09-09T06:06:33;16.60;99.90
3942;DHT22;1985;48.592;8.850;2022-09-09T06:09:03;16.60;99.90
3942;DHT22;1985;48.592;8.850;2022-09-09T06:11:32;16.50;99.90
3942;DHT22;1985;48.592;8.850;2022-09-09T06:13:59;16.40;99.90
3942;DHT22;1985;48.592;8.850;2022-09-09T06:16:26;16.40;99.90
3942;DHT22;1985;48.592;8.850;2022-09-09T06:18:54;16.30;99.90
3942;DHT22;1985;48.592;8.850;2022-09-09T06:21:24;16.20;99.90
3942;DHT22;1985;48.592;8.850;2022-09-09T06:23:51;16.20;99.90
3942;DHT22;1985;48.592;8.850;2022-09-09T06:26:24;16.10;99.90
3942;DHT22;1985;48.592;8.850;2022-09-09T06:28:51;16.10;99.90
3942;DHT22;1985;48.592;8.850;2022-09-09T06:31:22;16.20;99.90
3942;DHT22;1985;48.592;8.850;2022-09-09T06:33:49;16.30;99.90
3942;DHT22;1985;48.592;8.850;2022-09-09T06:36:21;16.20;99.90
3942;DHT22;1985;48.592;8.850;2022-09-09T06:38:47;16.30;99.90
3942;DHT22;1985;48.592;8.850;2022-09-09T06:41:15;16.40;99.90
3942;DHT22;1985;48.592;8.850;2022-09-09T06:43:41;16.50;99.90
3942;DHT22;1985;48.592;8.850;2022-09-09T06:46:12;16.60;99.90
3942;DHT22;1985;48.592;8.850;2022-09-09T06:48:42;16.60;99.90
3942;DHT22;1985;48.592;8.850;2022-09-09T06:53:37;16.60;99.90
3942;DHT22;1985;48.592;8.850;2022-09-09T06:58:47;16.60;99.90
3942;DHT22;1985;48.592;8.850;2022-09-09T07:01:16;16.60;99.90
3942;DHT22;1985;48.592;8.850;2022-09-09T07:03:44;16.60;99.90
3942;DHT22;1985;48.592;8.850;2022-09-09T07:06:16;16.70;99.90
3942;DHT22;1985;48.592;8.850;2022-09-09T07:08:52;16.70;99.90
3942;DHT22;1985;48.592;8.850;2022-09-09T07:11:19;16.60;99.90
3942;DHT22;1985;48.592;8.850;2022-09-09T07:13:46;16.70;99.90
3942;DHT22;1985;48.592;8.850;2022-09-09T07:16:14;16.80;99.90
3942;DHT22;1985;48.592;8.850;2022-09-09T07:18:41;16.90;99.90
3942;DHT22;1985;48.592;8.850;2022-09-09T07:21:08;16.90;99.90
3942;DHT22;1985;48.592;8.850;2022-09-09T07:23:34;17.00;99.90
3942;DHT22;1985;48.592;8.850;2022-09-09T07:26:01;17.20;99.90
3942;DHT22;1985;48.592;8.850;2022-09-09T07:28:27;17.20;99.90
3942;DHT22;1985;48.592;8.850;2022-09-09T07:30:58;17.20;99.90
3942;DHT22;1985;48.592;8.850;2022-09-09T07:33:25;17.30;99.90
3942;DHT22;1985;48.592;8.850;2022-09-09T07:35:51;17.20;99.90
3942;DHT22;1985;48.592;8.850;2022-09-09T07:38:17;17.30;99.90
3942;DHT22;1985;48.592;8.850;2022-09-09T07:40:44;17.30;99.90
3942;DHT22;1985;48.592;8.850;2022-09-09T07:43:10;17.40;99.90
3942;DHT22;1985;48.592;8.850;2022-09-09T07:45:38;17.50;99.90
3942;DHT22;1985;48.592;8.850;2022-09-09T07:48:04;17.70;99.90
3942;DHT22;1985;48.592;8.850;2022-09-09T07:50:30;17.70;99.90
3942;DHT22;1985;48.592;8.850;2022-09-09T07:52:56;17.90;99.90
3942;DHT22;1985;48.592;8.850;2022-09-09T07:55:22;18.00;99.90
3942;DHT22;1985;48.592;8.850;2022-09-09T07:57:52;18.00;99.90
3942;DHT22;1985;48.592;8.850;2022-09-09T08:00:18;18.00;99.90
3942;DHT22;1985;48.592;8.850;2022-09-09T08:02:45;18.10;99.90
3942;DHT22;1985;48.592;8.850;2022-09-09T08:05:11;18.30;99.90
3942;DHT22;1985;48.592;8.850;2022-09-09T08:07:38;18.40;99.90
3942;DHT22;1985;48.592;8.850;2022-09-09T08:10:04;18.50;99.90
3942;DHT22;1985;48.592;8.850;2022-09-09T08:12:30;18.60;99.90
3942;DHT22;1985;48.592;8.850;2022-09-09T08:14:55;18.60;99.90
3942;DHT22;1985;48.592;8.850;2022-09-09T08:17:21;18.70;99.90
3942;DHT22;1985;48.592;8.850;2022-09-09T08:19:46;18.70;99.90
3942;DHT22;1985;48.592;8.850;2022-09-09T08:22:12;18.80;99.90
3942;DHT22;1985;48.592;8.850;2022-09-09T08:24:38;18.90;99.90
3942;DHT22;1985;48.592;8.850;2022-09-09T08:27:04;19.10;99.90
3942;DHT22;1985;48.592;8.850;2022-09-09T08:29:30;19.00;99.90
3942;DHT22;1985;48.592;8.850;2022-09-09T08:31:57;19.10;99.90
3942;DHT22;1985;48.592;8.850;2022-09-09T08:34:24;19.30;99.90
3942;DHT22;1985;48.592;8.850;2022-09-09T08:36:52;19.60;99.90
3942;DHT22;1985;48.592;8.850;2022-09-09T08:39:19;19.80;99.90
3942;DHT22;1985;48.592;8.850;2022-09-09T08:42:50;19.60;99.90
3942;DHT22;1985;48.592;8.850;2022-09-09T08:45:12;19.00;99.90
3942;DHT22;1985;48.592;8.850;2022-09-09T08:50:39;17.60;99.90
3942;DHT22;1985;48.592;8.850;2022-09-09T08:53:16;17.10;99.90
3942;DHT22;1985;48.592;8.850;2022-09-09T08:55:54;16.70;99.90
3942;DHT22;1985;48.592;8.850;2022-09-09T08:58:28;16.50;99.90
3942;DHT22;1985;48.592;8.850;2022-09-09T09:04:29;16.40;99.90
3942;DHT22;1985;48.592;8.850;2022-09-09T09:07:29;16.60;99.90
3942;DHT22;1985;48.592;8.850;2022-09-09T09:12:40;16.80;99.90
3942;DHT22;1985;48.592;8.850;2022-09-09T09:15:18;16.60;99.90
3942;DHT22;1985;48.592;8.850;2022-09-09T09:17:44;16.60;99.90
3942;DHT22;1985;48.592;8.850;2022-09-09T09:20:14;17.00;99.90
3942;DHT22;1985;48.592;8.850;2022-09-09T09:22:51;17.20;99.90
3942;DHT22;1985;48.592;8.850;2022-09-09T09:25:19;17.50;99.90
3942;DHT22;1985;48.592;8.850;2022-09-09T09:36:02;17.90;99.90
3942;DHT22;1985;48.592;8.850;2022-09-09T09:38:29;18.10;99.90
3942;DHT22;1985;48.592;8.850;2022-09-09T09:40:56;18.00;99.90
3942;DHT22;1985;48.592;8.850;2022-09-09T09:43:31;17.80;99.90
3942;DHT22;1985;48.592;8.850;2022-09-09T09:45:58;18.10;99.90
3942;DHT22;1985;48.592;8.850;2022-09-09T09:48:24;18.40;99.90
3942;DHT22;1985;48.592;8.850;2022-09-09T09:50:57;18.50;99.90
3942;DHT22;1985;48.592;8.850;2022-09-09T09:53:29;18.40;99.90
3942;DHT22;1985;48.592;8.850;2022-09-09T09:58:27;18.70;99.90
3942;DHT22;1985;48.592;8.850;2022-09-09T10:00:54;18.90;99.90
3942;DHT22;1985;48.592;8.850;2022-09-09T10:03:27;19.20;99.90
3942;DHT22;1985;48.592;8.850;2022-09-09T10:05:54;19.40;99.90
3942;DHT22;1985;48.592;8.850;2022-09-09T10:08:23;19.40;99.90
3942;DHT22;1985;48.592;8.850;2022-09-09T10:19:03;19.10;99.90
3942;DHT22;1985;48.592;8.850;2022-09-09T10:27:27;18.90;99.90
3942;DHT22;1985;48.592;8.850;2022-09-09T10:30:17;18.90;99.90
3942;DHT22;1985;48.592;8.850;2022-09-09T10:40:39;19.10;99.90
3942;DHT22;1985;48.592;8.850;2022-09-09T10:46:04;19.00;99.90
3942;DHT22;1985;48.592;8.850;2022-09-09T10:56:37;18.10;99.90
3942;DHT22;1985;48.592;8.850;2022-09-09T10:59:10;17.70;99.90
3942;DHT22;1985;48.592;8.850;2022-09-09T11:01:49;17.20;99.90
3942;DHT22;1985;48.592;8.850;2022-09-09T11:04:32;16.70;99.90
3942;DHT22;1985;48.592;8.850;2022-09-09T11:07:02;16.40;99.90
3942;DHT22;1985;48.592;8.850;2022-09-09T11:09:42;16.20;99.90
3942;DHT22;1985;48.592;8.850;2022-09-09T11:12:17;15.90;99.90
3942;DHT22;1985;48.592;8.850;2022-09-09T11:14:51;15.50;99.90
3942;DHT22;1985;48.592;8.850;2022-09-09T11:17:26;15.40;99.90
3942;DHT22;1985;48.592;8.850;2022-09-09T11:19:55;15.40;99.90
3942;DHT22;1985;48.592;8.850;2022-09-09T11:25:41;15.40;99.90
3942;DHT22;1985;48.592;8.850;2022-09-09T11:31:44;15.60;99.90
3942;DHT22;1985;48.592;8.850;2022-09-09T11:44:41;16.60;99.90
3942;DHT22;1985;48.592;8.850;2022-09-09T11:47:24;16.80;99.90
3942;DHT22;1985;48.592;8.850;2022-09-09T11:52:47;17.10;99.90
3942;DHT22;1985;48.592;8.850;2022-09-09T11:55:33;17.30;99.90
3942;DHT22;1985;48.592;8.850;2022-09-09T12:00:46;18.20;99.90
3942;DHT22;1985;48.592;8.850;2022-09-09T12:03:35;19.00;99.90
3942;DHT22;1985;48.592;8.850;2022-09-09T12:06:13;19.70;99.90
3942;DHT22;1985;48.592;8.850;2022-09-09T12:08:43;19.60;99.90
3942;DHT22;1985;48.592;8.850;2022-09-09T12:11:10;19.30;99.90
3942;DHT22;1985;48.592;8.850;2022-09-09T12:13:37;18.90;99.90
3942;DHT22;1985;48.592;8.850;2022-09-09T12:16:02;18.70;99.90
3942;DHT22;1985;48.592;8.850;2022-09-09T12:18:35;18.30;99.90
3942;DHT22;1985;48.592;8.850;2022-09-09T12:24:21;18.10;99.90
3942;DHT22;1985;48.592;8.850;2022-09-09T12:26:58;18.40;99.90
3942;DHT22;1985;48.592;8.850;2022-09-09T12:29:35;18.70;99.90
3942;DHT22;1985;48.592;8.850;2022-09-09T12:32:22;18.90;99.90
3942;DHT22;1985;48.592;8.850;2022-09-09T12:34:56;19.00;99.90
3942;DHT22;1985;48.592;8.850;2022-09-09T12:40:05;19.30;99.90
3942;DHT22;1985;48.592;8.850;2022-09-09T12:42:31;19.60;99.90
3942;DHT22;1985;48.592;8.850;2022-09-09T12:45:03;19.60;99.90
3942;DHT22;1985;48.592;8.850;2022-09-09T12:47:56;20.10;99.90
3942;DHT22;1985;48.592;8.850;2022-09-09T12:50:50;20.80;99.90
3942;DHT22;1985;48.592;8.850;2022-09-09T12:53:35;20.90;99.30
3942;DHT22;1985;48.592;8.850;2022-09-09T12:56:06;21.00;97.60
3942;DHT22;1985;48.592;8.850;2022-09-09T12:58:37;20.90;99.40
3942;DHT22;1985;48.592;8.850;2022-09-09T13:01:04;20.90;97.50
3942;DHT22;1985;48.592;8.850;2022-09-09T13:03:32;20.90;95.30
3942;DHT22;1985;48.592;8.850;2022-09-09T13:06:10;20.70;97.30
3942;DHT22;1985;48.592;8.850;2022-09-09T13:08:37;20.60;97.70
3942;DHT22;1985;48.592;8.850;2022-09-09T13:11:07;20.50;97.70
3942;DHT22;1985;48.592;8.850;2022-09-09T13:13:38;20.30;96.60
3942;DHT22;1985;48.592;8.850;2022-09-09T13:16:06;19.90;95.90
3942;DHT22;1985;48.592;8.850;2022-09-09T13:18:35;20.20;96.40
3942;DHT22;1985;48.592;8.850;2022-09-09T13:21:02;20.60;94.40
3942;DHT22;1985;48.592;8.850;2022-09-09T13:23:31;20.60;93.80
3942;DHT22;1985;48.592;8.850;2022-09-09T13:26:02;20.30;93.80
3942;DHT22;1985;48.592;8.850;2022-09-09T13:28:30;20.60;94.70
3942;DHT22;1985;48.592;8.850;2022-09-09T13:31:04;21.00;92.90
3942;DHT22;1985;48.592;8.850;2022-09-09T13:33:35;21.00;91.40
3942;DHT22;1985;48.592;8.850;2022-09-09T13:36:07;21.00;91.00
3942;DHT22;1985;48.592;8.850;2022-09-09T13:38:40;21.30;90.90
3942;DHT22;1985;48.592;8.850;2022-09-09T13:41:08;21.50;87.00
3942;DHT22;1985;48.592;8.850;2022-09-09T13:43:42;21.40;88.50
3942;DHT22;1985;48.592;8.850;2022-09-09T13:46:40;21.50;86.90
3942;DHT22;1985;48.592;8.850;2022-09-09T13:51:42;21.50;86.20
3942;DHT22;1985;48.592;8.850;2022-09-09T13:54:13;21.70;85.60
3942;DHT22;1985;48.592;8.850;2022-09-09T13:56:40;22.00;83.70
3942;DHT22;1985;48.592;8.850;2022-09-09T13:59:10;22.00;80.00
3942;DHT22;1985;48.592;8.850;2022-09-09T14:01:36;21.80;79.00
3942;DHT22;1985;48.592;8.850;2022-09-09T14:04:03;21.50;80.00
3942;DHT22;1985;48.592;8.850;2022-09-09T14:06:29;21.40;77.60
3942;DHT22;1985;48.592;8.850;2022-09-09T14:08:55;21.50;80.10
3942;DHT22;1985;48.592;8.850;2022-09-09T14:11:21;21.50;78.10
3942;DHT22;1985;48.592;8.850;2022-09-09T14:13:48;21.60;76.00
3942;DHT22;1985;48.592;8.850;2022-09-09T14:16:16;21.80;75.70
3942;DHT22;1985;48.592;8.850;2022-09-09T14:18:43;21.80;76.80
3942;DHT22;1985;48.592;8.850;2022-09-09T14:21:10;21.70;75.60
3942;DHT22;1985;48.592;8.850;2022-09-09T14:23:37;21.60;76.20
3942;DHT22;1985;48.592;8.850;2022-09-09T14:26:04;21.60;75.20
3942;DHT22;1985;48.592;8.850;2022-09-09T14:28:29;21.50;74.90
3942;DHT22;1985;48.592;8.850;2022-09-09T14:30:59;21.70;76.10
3942;DHT22;1985;48.592;8.850;2022-09-09T14:33:26;21.70;75.20
3942;DHT22;1985;48.592;8.850;2022-09-09T14:35:58;21.70;76.20
3942;DHT22;1985;48.592;8.850;2022-09-09T14:38:25;21.50;75.60
3942;DHT22;1985;48.592;8.850;2022-09-09T14:40:51;21.50;76.90
3942;DHT22;1985;48.592;8.850;2022-09-09T14:43:16;21.60;78.20
3942;DHT22;1985;48.592;8.850;2022-09-09T14:45:42;21.90;78.40
3942;DHT22;1985;48.592;8.850;2022-09-09T14:48:08;21.80;77.20
3942;DHT22;1985;48.592;8.850;2022-09-09T14:50:34;21.70;77.40
3942;DHT22;1985;48.592;8.850;2022-09-09T14:53:02;21.80;79.50
3942;DHT22;1985;48.592;8.850;2022-09-09T14:55:27;21.80;79.20
3942;DHT22;1985;48.592;8.850;2022-09-09T14:57:54;21.70;78.80
3942;DHT22;1985;48.592;8.850;2022-09-09T15:00:20;21.60;79.90
3942;DHT22;1985;48.592;8.850;2022-09-09T15:02:45;21.70;78.20
3942;DHT22;1985;48.592;8.850;2022-09-09T15:05:11;21.60;74.50
3942;DHT22;1985;48.592;8.850;2022-09-09T15:07:37;21.50;72.30
3942;DHT22;1985;48.592;8.850;2022-09-09T15:10:03;21.50;74.30
3942;DHT22;1985;48.592;8.850;2022-09-09T15:12:29;21.60;74.60
3942;DHT22;1985;48.592;8.850;2022-09-09T15:14:55;21.80;73.90
3942;DHT22;1985;48.592;8.850;2022-09-09T15:17:21;21.60;72.50
3942;DHT22;1985;48.592;8.850;2022-09-09T15:19:47;21.50;73.50
3942;DHT22;1985;48.592;8.850;2022-09-09T15:22:12;21.40;74.30
3942;DHT22;1985;48.592;8.850;2022-09-09T15:24:38;21.00;74.20
3942;DHT22;1985;48.592;8.850;2022-09-09T15:27:04;21.10;75.90
3942;DHT22;1985;48.592;8.850;2022-09-09T15:29:29;20.90;75.60
3942;DHT22;1985;48.592;8.850;2022-09-09T15:31:55;20.70;75.20
3942;DHT22;1985;48.592;8.850;2022-09-09T15:34:21;20.60;76.40
3942;DHT22;1985;48.592;8.850;2022-09-09T15:36:47;20.40;77.30
3942;DHT22;1985;48.592;8.850;2022-09-09T15:39:17;20.30;77.80
3942;DHT22;1985;48.592;8.850;2022-09-09T15:41:47;20.20;78.30
3942;DHT22;1985;48.592;8.850;2022-09-09T15:44:13;20.20;78.70
3942;DHT22;1985;48.592;8.850;2022-09-09T15:46:40;20.00;75.00
3942;DHT22;1985;48.592;8.850;2022-09-09T15:51:43;19.70;77.20
3942;DHT22;1985;48.592;8.850;2022-09-09T15:54:17;19.70;79.40
3942;DHT22;1985;48.592;8.850;2022-09-09T15:56:43;19.60;78.50
3942;DHT22;1985;48.592;8.850;2022-09-09T15:59:09;19.70;79.40
3942;DHT22;1985;48.592;8.850;2022-09-09T16:01:35;19.70;79.40
3942;DHT22;1985;48.592;8.850;2022-09-09T16:04:01;19.60;79.80
3942;DHT22;1985;48.592;8.850;2022-09-09T16:06:28;19.70;80.50
3942;DHT22;1985;48.592;8.850;2022-09-09T16:08:55;19.70;80.20
3942;DHT22;1985;48.592;8.850;2022-09-09T16:11:25;19.60;81.10
3942;DHT22;1985;48.592;8.850;2022-09-09T16:13:52;19.50;81.40
3942;DHT22;1985;48.592;8.850;2022-09-09T16:16:20;19.60;83.30
3942;DHT22;1985;48.592;8.850;2022-09-09T16:18:48;19.80;83.80
3942;DHT22;1985;48.592;8.850;2022-09-09T16:21:20;19.80;82.70
3942;DHT22;1985;48.592;8.850;2022-09-09T16:23:47;19.80;80.70
3942;DHT22;1985;48.592;8.850;2022-09-09T16:26:15;19.80;81.50
3942;DHT22;1985;48.592;8.850;2022-09-09T16:28:41;19.80;84.00
3942;DHT22;1985;48.592;8.850;2022-09-09T16:31:09;19.80;86.50
3942;DHT22;1985;48.592;8.850;2022-09-09T16:33:36;19.90;86.10
3942;DHT22;1985;48.592;8.850;2022-09-09T16:36:06;20.10;85.30
3942;DHT22;1985;48.592;8.850;2022-09-09T16:38:32;20.20;85.70
3942;DHT22;1985;48.592;8.850;2022-09-09T16:41:02;20.40;85.40
3942;DHT22;1985;48.592;8.850;2022-09-09T16:43:29;20.50;84.40
3942;DHT22;1985;48.592;8.850;2022-09-09T16:45:55;20.50;85.10
3942;DHT22;1985;48.592;8.850;2022-09-09T16:48:20;20.40;85.20
3942;DHT22;1985;48.592;8.850;2022-09-09T16:50:46;20.40;86.70
3942;DHT22;1985;48.592;8.850;2022-09-09T16:53:12;20.40;87.00
3942;DHT22;1985;48.592;8.850;2022-09-09T16:55:39;20.20;84.70
3942;DHT22;1985;48.592;8.850;2022-09-09T16:58:06;20.10;84.90
3942;DHT22;1985;48.592;8.850;2022-09-09T17:00:32;20.00;87.00
3942;DHT22;1985;48.592;8.850;2022-09-09T17:02:59;19.80;86.60
3942;DHT22;1985;48.592;8.850;2022-09-09T17:05:24;19.80;87.50
3942;DHT22;1985;48.592;8.850;2022-09-09T17:07:50;19.80;88.40
3942;DHT22;1985;48.592;8.850;2022-09-09T17:10:16;19.80;88.80
3942;DHT22;1985;48.592;8.850;2022-09-09T17:12:42;19.80;88.70
3942;DHT22;1985;48.592;8.850;2022-09-09T17:15:08;19.80;88.90
3942;DHT22;1985;48.592;8.850;2022-09-09T17:17:34;19.40;89.70
3942;DHT22;1985;48.592;8.850;2022-09-09T17:20:00;19.20;90.00
3942;DHT22;1985;48.592;8.850;2022-09-09T17:22:27;19.00;90.50
3942;DHT22;1985;48.592;8.850;2022-09-09T17:24:52;18.70;91.50
3942;DHT22;1985;48.592;8.850;2022-09-09T17:27:18;18.60;92.10
3942;DHT22;1985;48.592;8.850;2022-09-09T17:29:44;18.50;92.60
3942;DHT22;1985;48.592;8.850;2022-09-09T17:32:09;18.50;92.80
3942;DHT22;1985;48.592;8.850;2022-09-09T17:34:35;18.40;93.10
3942;DHT22;1985;48.592;8.850;2022-09-09T17:37:01;18.50;93.70
3942;DHT22;1985;48.592;8.850;2022-09-09T17:39:27;18.40;93.60
3942;DHT22;1985;48.592;8.850;2022-09-09T17:41:53;18.50;94.00
3942;DHT22;1985;48.592;8.850;2022-09-09T17:44:20;18.50;94.00
3942;DHT22;1985;48.592;8.850;2022-09-09T17:46:45;18.60;94.00
3942;DHT22;1985;48.592;8.850;2022-09-09T17:49:16;18.50;94.40
3942;DHT22;1985;48.592;8.850;2022-09-09T17:51:43;18.60;94.50
3942;DHT22;1985;48.592;8.850;2022-09-09T17:54:14;18.70;94.40
3942;DHT22;1985;48.592;8.850;2022-09-09T17:56:42;18.70;94.30
3942;DHT22;1985;48.592;8.850;2022-09-09T17:59:11;18.70;94.30
3942;DHT22;1985;48.592;8.850;2022-09-09T18:01:39;18.70;94.30
3942;DHT22;1985;48.592;8.850;2022-09-09T18:04:07;18.70;94.60
3942;DHT22;1985;48.592;8.850;2022-09-09T18:06:38;18.70;94.50
3942;DHT22;1985;48.592;8.850;2022-09-09T18:09:10;18.60;95.40
3942;DHT22;1985;48.592;8.850;2022-09-09T18:11:40;18.70;95.70
3942;DHT22;1985;48.592;8.850;2022-09-09T18:14:09;18.70;95.60
3942;DHT22;1985;48.592;8.850;2022-09-09T18:16:36;18.70;95.60
3942;DHT22;1985;48.592;8.850;2022-09-09T18:19:06;18.50;95.90
3942;DHT22;1985;48.592;8.850;2022-09-09T18:21:34;18.40;96.30
3942;DHT22;1985;48.592;8.850;2022-09-09T18:24:02;18.10;96.30
3942;DHT22;1985;48.592;8.850;2022-09-09T18:26:29;17.80;96.70
3942;DHT22;1985;48.592;8.850;2022-09-09T18:28:56;17.60;97.70
3942;DHT22;1985;48.592;8.850;2022-09-09T18:31:24;17.50;98.20
3942;DHT22;1985;48.592;8.850;2022-09-09T18:33:51;17.50;99.10
3942;DHT22;1985;48.592;8.850;2022-09-09T18:36:26;17.50;99.80